Date,TemperatureHighF,TemperatureAvgF,TemperatureLowF,DewpointHighF,DewpointAvgF,DewpointLowF,HumidityHigh,HumidityAvg,HumidityLow,PressureMaxIn,PressureMinIn,WindSpeedMaxMPH,WindSpeedAvgMPH,GustSpeedMaxMPH,PrecipitationSumIn
2013-1-1,41.2,33.4,29.5,32.4,26.9,24.2,90,77,66,30.36,30.25,11,4,11,0.01
2013-1-2,45.4,37.6,31.7,27.0,23.5,21.4,75,57,46,30.25,30.13,14,4,14,0.00
2013-1-3,43.2,37.6,32.6,33.9,24.6,19.4,88,60,43,30.20,30.07,11,2,11,0.00
2013-1-4,47.9,39.2,34.0,43.8,35.7,30.3,90,87,80,30.28,30.11,6,1,6,0.04
2013-1-5,40.0,36.7,34.2,37.1,33.3,29.8,91,87,82,30.17,30.08,5,0,5,0.03
2013-1-6,43.7,40.3,37.1,40.8,37.5,34.4,91,90,88,30.19,30.02,3,0,3,0.22
2013-1-7,51.5,48.0,41.9,47.2,44.3,38.6,90,87,84,30.16,29.92,8,1,8,0.20
2013-1-8,54.0,50.5,45.2,50.7,47.0,41.9,90,88,85,30.15,29.86,10,2,10,0.17
2013-1-9,50.8,43.1,35.6,47.3,39.9,33.2,91,88,79,29.94,29.66,10,1,10,0.41
2013-1-10,39.1,37.1,35.1,36.5,34.5,32.7,91,90,90,30.04,29.92,6,0,6,0.24
2013-1-11,37.1,33.9,29.0,34.4,31.4,26.6,91,91,90,30.24,30.04,4,0,4,0.01
2013-1-12,37.4,29.5,23.8,33.3,26.9,21.5,92,90,81,30.34,30.23,6,0,6,0.00
2013-1-13,35.3,29.0,24.1,31.0,26.2,21.9,92,89,84,30.43,30.33,4,0,4,0.00
2013-1-14,33.5,31.3,29.2,31.1,29.0,26.6,92,91,90,30.50,30.42,3,0,3,0.00
2013-1-15,38.2,35.7,33.3,35.5,33.3,31.1,92,91,90,30.59,30.49,4,0,4,0.02
2013-1-16,36.9,35.4,34.0,34.2,32.8,31.3,91,90,89,30.59,30.42,4,0,4,0.00
2013-1-17,39.2,33.5,29.2,36.5,31.0,26.9,92,90,89,30.42,30.25,3,0,3,0.01
2013-1-18,39.4,31.3,27.0,36.8,29.1,24.6,92,91,90,30.26,30.20,3,0,3,0.00
2013-1-19,40.9,31.6,25.4,38.0,29.3,23.3,92,91,88,30.28,30.21,3,0,3,0.00
2013-1-20,41.8,31.1,24.7,37.8,28.6,22.4,92,91,86,30.29,30.17,3,0,3,0.01
2013-1-21,40.9,30.0,23.6,36.4,27.3,21.3,92,89,82,30.22,30.09,4,0,4,0.00
2013-1-22,41.2,29.7,21.8,35.7,26.7,19.3,92,89,79,30.10,29.88,3,0,3,0.01
2013-1-23,36.5,34.1,31.3,33.5,31.4,28.8,92,90,84,30.15,29.83,3,0,3,0.27
2013-1-24,41.8,37.9,33.3,38.9,35.3,31.0,92,90,89,30.17,30.05,3,0,3,0.32
2013-1-25,51.3,45.8,38.0,46.9,41.9,35.1,90,86,84,30.08,29.91,3,0,3,0.42
2013-1-26,46.3,42.0,36.0,43.6,38.9,33.3,91,89,86,30.03,29.89,5,0,5,0.19
2013-1-27,44.6,40.8,39.4,41.9,38.1,36.7,91,90,89,30.09,29.99,5,1,5,0.28
2013-1-28,43.4,41.9,39.6,39.8,38.2,36.6,90,87,86,30.15,30.02,9,1,9,1.06
2013-1-29,46.6,44.8,42.8,42.4,40.7,38.9,87,86,85,30.41,30.15,6,1,6,0.82
2013-1-30,48.6,46.5,43.4,44.9,42.4,39.4,88,86,85,30.40,30.35,6,1,6,0.31
2013-1-31,51.7,48.2,45.5,48.8,44.6,41.1,90,87,84,30.40,30.28,4,0,4,0.02
2013-2-1,53.3,46.4,39.6,48.3,42.6,37.2,91,86,76,30.30,30.19,8,2,8,0.00
2013-2-2,53.8,41.8,32.8,48.3,37.8,30.4,92,86,76,30.25,30.19,5,0,5,0.00
2013-2-3,49.0,42.6,34.0,46.2,39.9,31.6,91,90,88,30.28,30.17,4,0,4,0.01
2013-2-4,51.8,44.8,39.6,46.5,41.5,37.2,91,88,79,30.18,29.89,4,0,5,0.00
2013-2-5,50.4,45.7,41.9,46.9,42.9,39.2,91,90,86,30.00,29.87,7,1,7,0.41
2013-2-6,51.1,45.8,41.2,45.9,42.3,38.8,91,88,79,30.04,29.80,6,0,6,0.17
2013-2-7,47.2,41.1,33.5,42.4,37.9,30.8,92,88,77,30.08,29.88,5,0,5,0.14
2013-2-8,41.8,36.7,32.4,38.1,34.1,30.3,92,90,84,30.22,30.08,3,0,4,0.01
2013-2-9,44.1,40.7,33.1,41.4,38.2,30.8,92,91,90,30.24,30.19,2,0,2,0.03
2013-2-10,45.0,42.8,41.4,42.6,40.1,38.6,91,90,88,30.29,30.24,5,0,5,0.00
2013-2-11,45.7,42.8,40.0,43.3,40.4,37.5,92,91,90,30.34,30.25,4,0,4,0.04
2013-2-12,54.4,48.3,44.6,50.7,45.3,41.9,91,89,83,30.41,30.33,5,1,5,0.01
2013-2-13,52.7,48.4,45.2,49.4,45.7,42.8,91,90,86,30.45,30.36,5,1,5,0.02
2013-2-14,53.1,46.0,39.2,48.1,42.6,36.2,91,88,78,30.50,30.44,6,1,6,0.00
2013-2-15,62.8,45.3,33.5,52.8,40.5,31.3,92,84,65,30.44,30.13,6,0,6,0.00
2013-2-16,52.4,43.9,35.8,47.8,40.5,33.0,91,88,82,30.22,30.15,9,0,9,0.00
2013-2-17,44.5,40.8,35.1,40.2,37.0,31.9,92,86,77,30.24,30.03,4,0,4,0.00
2013-2-18,48.6,40.0,33.5,41.5,36.0,31.1,92,86,76,30.04,29.69,5,0,5,0.00
2013-2-19,52.7,42.4,34.7,42.3,36.8,30.8,92,81,58,29.94,29.64,10,2,10,0.07
2013-2-20,49.0,41.3,34.2,42.7,37.6,30.3,91,87,74,30.03,29.94,6,0,6,0.06
2013-2-21,44.3,41.8,39.8,41.6,39.1,36.9,91,90,87,30.14,30.03,6,1,6,0.08
2013-2-22,45.9,43.4,39.6,43.5,40.7,37.3,92,90,85,30.12,29.83,8,2,8,0.54
2013-2-23,46.3,39.9,35.6,43.7,37.5,33.5,92,91,88,30.37,30.01,8,1,8,0.09
2013-2-24,51.5,41.5,34.4,44.1,37.3,32.2,92,86,68,30.38,30.00,10,0,10,0.00
2013-2-25,47.2,42.9,39.2,43.6,39.2,35.5,91,87,74,30.32,29.95,9,1,10,0.20
2013-2-26,48.6,41.8,35.5,41.1,37.2,32.8,91,84,69,30.33,30.19,6,0,6,0.00
2013-2-27,52.9,46.0,40.0,45.0,41.6,37.3,91,85,72,30.25,30.17,5,0,5,0.02
2013-2-28,55.8,51.6,45.9,52.6,48.7,43.5,91,90,89,30.38,30.15,7,1,7,0.13
2013-3-1,61.4,55.8,52.4,54.7,51.4,49.1,90,85,77,30.40,30.26,5,1,5,0.00
2013-3-2,54.5,49.8,43.6,50.4,46.6,40.9,91,89,84,30.26,30.10,12,1,12,0.12
2013-3-3,49.0,41.1,32.9,42.1,36.4,29.0,92,84,62,30.26,30.19,5,0,5,0.00
2013-3-4,59.8,43.6,29.7,38.2,31.5,26.3,90,66,32,30.19,29.86,8,1,8,0.00
2013-3-5,46.4,40.4,33.7,43.3,36.7,28.4,91,87,77,29.86,29.58,5,1,5,0.38
2013-3-6,44.1,42.2,40.5,41.2,39.7,38.1,91,91,90,29.92,29.48,6,1,6,0.47
2013-3-7,55.3,43.4,32.9,43.7,36.9,30.7,92,79,57,29.99,29.91,8,1,8,0.01
2013-3-8,57.4,41.5,30.8,44.8,34.3,27.6,90,77,54,30.16,29.97,8,1,8,0.00
2013-3-9,59.4,43.9,29.9,45.9,35.8,26.2,90,75,53,30.43,30.16,9,1,9,0.00
2013-3-10,50.9,42.4,32.9,43.7,37.5,28.6,90,83,72,30.43,30.35,4,0,4,0.00
2013-3-11,52.6,48.8,45.0,50.0,46.0,42.2,91,90,88,30.36,30.19,4,0,4,0.04
2013-3-12,59.4,51.6,46.6,52.9,48.0,43.3,91,87,76,30.19,30.10,5,0,5,0.00
2013-3-13,63.4,53.7,46.6,53.6,48.4,43.9,91,83,67,30.18,30.04,6,0,6,0.00
2013-3-14,60.7,52.4,45.9,53.7,47.2,43.2,91,83,65,30.16,29.99,5,0,5,0.00
2013-3-15,64.6,56.0,50.4,53.8,49.2,45.2,89,78,62,30.18,30.10,6,1,6,0.00
2013-3-16,51.3,47.2,40.1,47.3,43.8,37.7,91,88,82,30.12,29.94,13,1,13,0.57
2013-3-17,49.3,42.7,37.8,41.6,38.1,35.1,91,84,71,30.24,30.09,5,1,5,0.01
2013-3-18,54.4,43.2,34.4,44.4,37.0,31.2,91,79,60,30.23,30.09,6,1,6,0.01
2013-3-19,53.6,44.2,36.2,46.4,39.3,32.3,91,83,72,30.09,29.63,9,1,9,0.50
2013-3-20,52.6,47.8,39.6,49.7,44.1,35.2,90,87,79,30.10,29.49,10,2,10,0.28
2013-3-21,48.6,41.5,38.5,43.2,37.7,35.2,91,86,73,30.25,30.10,8,1,8,0.13
2013-3-22,45.4,39.1,33.1,40.2,35.2,30.1,91,86,76,30.34,30.23,10,1,10,0.05
2013-3-23,50.0,39.4,32.2,39.2,33.0,29.5,92,79,55,30.33,30.21,6,1,6,0.00
2013-3-24,56.5,44.2,33.1,41.4,34.9,28.6,90,71,52,30.21,30.02,10,2,10,0.00
2013-3-25,61.2,49.9,38.2,42.3,37.3,32.1,81,63,45,30.03,29.85,8,2,8,0.00
2013-3-26,53.6,46.4,39.1,48.3,41.9,34.3,89,84,75,29.97,29.92,4,0,4,0.03
2013-3-27,63.9,50.8,37.8,50.4,44.5,35.1,91,80,58,29.95,29.84,10,1,10,0.21
2013-3-28,65.2,53.7,45.2,53.1,47.2,42.7,91,79,58,30.08,29.94,8,1,8,0.01
2013-3-29,67.7,56.8,48.6,55.6,49.8,45.5,90,78,60,30.15,30.08,8,1,8,0.02
2013-3-30,76.7,58.9,39.8,56.1,47.4,36.2,90,68,44,30.13,29.91,9,2,9,0.00
2013-3-31,74.7,61.1,45.4,54.9,48.2,38.8,82,64,48,29.96,29.86,8,1,8,0.00
2013-4-1,65.5,57.9,54.0,54.3,50.5,48.0,82,76,66,30.11,29.96,4,0,4,0.00
2013-4-2,66.8,56.8,49.3,54.3,49.2,43.4,86,76,60,30.16,30.07,6,0,6,0.00
2013-4-3,64.4,53.6,41.2,54.5,46.9,37.4,90,78,63,30.12,29.86,6,1,6,0.00
2013-4-4,60.1,55.6,51.7,56.9,51.4,47.3,90,86,80,29.86,29.65,7,1,7,0.12
2013-4-5,59.8,54.1,50.0,52.2,49.1,46.9,90,84,73,29.91,29.78,8,1,8,0.25
2013-4-6,52.9,48.9,44.3,48.8,46.1,41.6,91,90,85,29.97,29.67,7,1,8,1.23
2013-4-7,50.6,46.5,43.4,47.3,43.7,40.7,91,90,87,29.90,29.52,12,2,12,0.47
2013-4-8,52.7,46.5,41.9,47.4,43.2,39.2,91,88,80,30.23,29.92,4,0,4,0.08
2013-4-9,56.5,49.0,40.3,49.9,44.7,37.7,91,85,73,30.31,30.19,5,0,5,0.00
2013-4-10,59.6,52.8,47.2,54.9,47.7,41.0,90,83,69,30.28,30.05,11,2,11,0.08
2013-4-11,55.8,47.8,37.8,46.5,41.6,34.6,90,79,68,30.29,30.13,6,1,6,0.00
2013-4-12,55.3,45.9,34.2,46.9,40.7,30.3,90,82,72,30.13,29.81,5,1,6,0.19
2013-4-13,51.3,44.9,38.2,44.3,39.8,35.3,91,83,68,30.03,29.85,8,1,8,0.07
2013-4-14,51.8,43.9,40.5,45.0,39.7,36.5,90,85,75,30.03,29.88,8,1,8,0.05
2013-4-15,54.4,46.0,38.9,44.1,39.2,35.5,91,78,54,30.11,29.89,10,2,10,0.09
2013-4-16,59.0,47.7,39.6,46.9,40.3,35.3,90,76,50,30.34,30.11,13,1,13,0.00
2013-4-17,52.7,41.3,32.6,45.0,36.0,28.5,90,82,69,30.44,30.33,6,0,6,0.00
2013-4-18,61.2,52.6,44.6,49.4,44.6,39.3,85,75,63,30.43,30.27,6,1,6,0.00
2013-4-19,55.1,51.9,49.3,51.8,48.2,45.6,90,88,83,30.27,30.10,8,1,8,0.44
2013-4-20,61.0,53.1,47.7,49.7,46.3,42.6,89,78,62,30.29,30.20,7,1,7,0.00
2013-4-21,55.1,50.2,46.4,48.3,44.5,40.8,85,81,76,30.26,30.19,5,1,5,0.00
2013-4-22,63.7,51.1,36.4,46.1,36.2,28.9,89,61,31,30.37,30.26,14,3,14,0.00
2013-4-23,68.0,51.6,34.2,43.9,35.9,28.0,81,57,35,30.33,30.09,10,2,10,0.00
2013-4-24,73.8,56.3,36.4,44.0,37.4,30.2,82,53,28,30.20,29.97,12,2,12,0.00
2013-4-25,74.9,57.3,39.6,48.9,42.2,33.7,82,60,36,30.11,29.98,8,1,8,0.00
2013-4-26,76.9,60.2,42.1,54.5,44.8,36.6,85,60,31,30.19,30.10,8,1,8,0.00
2013-4-27,74.0,58.8,42.5,49.2,43.8,36.1,83,60,35,30.21,30.12,10,1,10,0.00
2013-4-28,67.7,58.4,50.8,51.6,46.4,41.2,84,66,45,30.22,30.03,6,1,6,0.04
2013-4-29,59.6,52.6,41.0,48.5,42.5,31.5,86,70,49,30.17,30.01,13,2,13,0.18
2013-4-30,56.3,46.7,38.5,42.7,36.7,31.0,83,69,50,30.39,30.18,9,1,9,0.00
2013-5-1,68.0,51.4,32.0,43.9,36.1,26.9,85,59,34,30.45,30.37,11,3,11,0.00
2013-5-2,77.8,63.5,45.9,46.5,39.0,30.0,57,41,29,30.39,30.19,12,3,12,0.04
2013-5-3,78.3,61.1,42.7,52.6,43.9,34.9,78,55,35,30.25,30.08,10,2,10,0.00
2013-5-4,79.9,63.2,42.8,52.3,39.9,32.7,84,50,21,30.10,29.87,18,3,18,0.00
2013-5-11,83.5,76.9,64.1,63.2,59.5,54.9,73,56,46,30.04,29.96,5,1,5,0.00
2013-5-12,72.7,63.4,57.4,61.7,56.1,51.1,82,77,66,30.08,30.02,5,0,5,0.04
2013-5-13,67.3,59.3,52.6,57.4,52.1,45.2,83,77,67,30.17,29.99,8,1,8,0.08
2013-5-14,66.4,55.9,44.3,49.1,43.7,39.2,83,65,44,30.18,30.05,8,1,8,0.00
2013-5-15,60.1,52.7,46.3,52.9,46.1,39.0,82,78,70,30.07,29.97,3,0,4,0.05
2013-5-16,64.3,56.5,53.1,56.9,50.8,47.8,82,81,75,29.98,29.88,5,0,5,0.15
2013-5-17,64.4,56.0,49.0,54.2,48.7,43.8,83,77,64,30.05,29.94,6,1,6,0.04
2013-5-18,57.2,53.8,50.8,51.4,48.3,45.5,83,82,78,30.23,30.04,4,0,4,0.79
2013-5-19,60.1,55.5,50.6,52.2,49.4,45.1,83,80,69,30.36,30.22,6,1,6,0.41
2013-5-20,71.3,56.0,42.5,56.0,47.2,38.3,85,74,52,30.30,29.85,7,1,7,0.00
2013-5-21,60.5,50.1,43.4,49.6,43.7,38.7,85,79,64,29.94,29.77,6,1,6,0.51
2013-5-22,47.3,45.1,42.1,42.8,40.7,37.9,85,85,83,29.94,29.89,7,1,7,0.52
2013-5-23,56.2,49.0,45.4,50.0,44.3,41.1,85,84,79,29.97,29.92,7,0,7,0.61
2013-5-24,61.9,52.6,46.6,51.7,46.5,42.2,85,80,66,30.04,29.93,8,1,8,0.22
2013-5-25,69.5,57.8,49.1,55.9,49.6,44.1,84,75,58,30.03,29.88,5,1,5,0.00
2013-5-26,64.4,58.3,52.6,55.4,51.0,46.1,83,77,67,29.99,29.89,5,1,6,0.11
2013-5-27,63.2,54.9,49.9,57.3,49.7,44.9,84,83,80,29.95,29.71,5,0,5,0.97
2013-5-28,64.4,56.6,51.5,55.6,50.1,46.8,84,79,68,29.90,29.73,6,1,6,0.11
2013-5-29,62.1,54.7,49.9,56.1,49.3,44.6,84,82,76,30.02,29.60,8,2,8,0.63
2013-5-30,65.3,55.6,48.2,52.7,48.2,43.6,86,77,62,30.20,30.02,8,1,8,0.03
2013-5-31,68.0,58.3,49.7,53.3,49.0,44.8,85,72,53,30.28,30.17,9,2,9,0.01
2013-6-1,74.7,60.5,45.7,58.3,51.2,40.9,85,72,55,30.20,29.97,10,1,10,0.00
2013-6-2,70.2,61.1,55.6,56.3,51.9,48.3,81,72,57,30.04,29.98,9,1,9,0.00
2013-6-3,72.7,60.2,51.5,57.7,50.9,45.7,82,72,52,30.07,29.98,7,1,8,0.00
2013-6-4,81.7,65.0,47.0,62.5,53.3,41.5,85,68,47,30.04,29.92,8,1,8,0.00
2013-6-5,81.4,68.6,53.6,60.6,56.0,48.2,83,66,43,30.03,29.93,10,2,10,0.81
2013-6-6,80.8,68.7,56.3,62.7,55.8,46.2,81,65,45,30.01,29.94,9,2,9,0.00
2013-6-7,79.2,65.9,51.5,57.0,50.6,44.8,80,60,39,30.10,30.01,10,2,10,0.00
2013-6-8,76.7,63.2,51.5,54.9,49.8,44.8,82,64,35,30.13,30.00,8,2,8,0.00
2013-6-9,70.9,60.3,51.7,53.9,48.6,44.0,78,66,49,30.07,29.93,10,2,10,0.00
2013-6-10,69.3,57.8,45.5,52.5,46.5,38.6,82,67,52,29.99,29.84,11,2,11,0.00
2013-6-11,65.3,58.7,52.9,51.5,48.0,44.0,76,68,56,30.09,29.94,7,1,7,0.01
2013-6-12,64.1,57.1,52.7,52.5,49.2,46.6,83,75,60,30.13,30.08,5,1,5,0.05
2013-6-13,61.9,55.9,50.0,55.0,50.4,45.6,86,82,75,30.24,30.12,6,1,6,0.20
2013-6-14,67.3,59.2,52.0,54.2,50.7,47.0,85,74,59,30.24,29.94,10,1,10,0.00
2013-6-15,79.6,64.0,46.8,60.8,52.9,41.9,85,69,47,29.96,29.86,6,1,6,0.00
2013-6-16,73.8,63.4,51.8,59.9,53.9,45.9,82,72,56,30.06,29.96,6,1,6,0.00
2013-6-17,77.6,65.5,54.2,57.9,53.4,48.0,82,66,47,30.06,29.89,7,1,7,0.00
2013-6-18,72.4,62.7,56.3,56.0,51.5,49.2,82,68,48,29.97,29.88,8,1,8,0.04
2013-6-19,64.1,56.9,52.4,55.4,50.9,46.9,84,80,68,30.05,29.91,6,1,6,0.23
2013-6-20,67.9,58.8,52.7,55.8,51.8,48.1,85,78,62,30.09,30.00,6,1,6,0.20
2013-6-21,68.0,59.6,54.0,56.5,51.9,49.0,85,76,59,30.13,30.07,5,1,5,0.00
2013-6-22,78.8,64.6,48.4,58.8,52.6,43.6,86,67,45,30.07,29.80,8,1,8,0.00
2013-6-23,67.9,63.8,59.6,61.4,57.4,53.1,83,80,71,29.81,29.60,4,0,4,0.36
2013-6-24,67.9,61.1,55.6,58.5,54.5,50.8,85,79,66,29.68,29.59,6,1,6,0.11
2013-6-25,65.3,61.9,57.2,60.4,56.8,52.7,85,83,82,29.84,29.64,5,1,5,0.29
2013-6-26,73.3,64.1,58.7,62.1,56.9,53.8,84,78,63,30.01,29.82,4,1,4,0.14
2013-6-27,80.6,69.9,59.9,67.3,61.2,54.8,83,75,61,30.11,29.97,6,1,6,0.00
2013-6-28,89.5,74.6,59.6,71.3,63.5,54.5,84,70,45,30.10,29.97,6,1,7,1.14
2013-6-29,86.4,74.3,62.3,65.9,61.9,56.7,83,67,46,30.07,29.92,7,1,7,0.00
2013-6-30,94.7,77.7,59.4,72.4,64.3,53.9,83,65,46,29.94,29.78,6,1,6,0.00
2013-7-1,89.5,77.7,65.3,71.5,66.0,60.0,83,68,54,29.97,29.86,6,1,6,0.00
2013-7-2,85.5,75.1,63.7,68.4,62.1,57.1,81,65,45,30.03,29.97,10,2,10,0.00
2013-7-3,81.9,69.9,58.1,58.3,54.0,48.2,80,59,33,30.10,29.97,9,2,9,0.00
2013-7-4,74.2,63.8,53.8,57.3,52.0,47.0,81,66,53,30.11,29.98,11,2,11,0.00
2013-7-5,69.8,62.0,56.5,55.9,52.7,49.0,81,72,58,30.02,29.90,7,1,7,1.23
2013-7-6,73.8,62.8,53.8,59.9,54.1,48.5,84,74,58,29.93,29.81,7,1,7,0.01
2013-7-7,75.4,62.8,52.4,62.4,55.2,47.7,85,77,59,29.92,29.83,10,1,10,0.00
2013-7-8,79.6,66.1,55.4,60.9,55.6,49.7,84,70,49,30.04,29.92,7,1,7,0.00
2013-7-9,86.6,70.9,53.6,65.7,57.8,48.3,84,65,41,30.03,29.92,10,1,10,0.00
2013-7-10,79.2,67.9,54.9,60.6,54.8,46.5,80,64,48,30.02,29.88,9,2,9,0.72
2013-7-11,73.8,61.8,49.7,53.3,48.4,42.8,81,63,46,30.04,29.90,10,2,10,0.00
2013-7-12,72.4,61.8,47.9,55.4,49.2,41.1,80,64,51,30.05,29.94,11,2,11,0.00
2013-7-13,79.0,64.2,47.0,55.9,49.9,40.5,82,62,41,30.10,29.97,10,2,10,0.00
2013-7-14,85.1,68.2,50.0,59.8,50.9,43.6,81,57,29,30.03,29.90,10,2,10,0.00
2013-7-15,84.2,68.3,50.4,59.1,51.3,41.7,77,56,42,29.96,29.75,10,2,10,0.00
2013-7-16,90.0,72.5,54.4,60.7,54.7,48.0,84,56,29,29.93,29.70,10,2,10,0.00
2013-7-17,78.5,67.3,61.2,59.6,55.2,52.3,74,66,51,30.10,29.92,9,1,9,0.00
2013-7-18,80.6,66.5,52.9,60.7,53.8,46.6,85,66,35,30.13,30.01,10,2,10,0.44
2013-7-19,80.8,65.3,52.0,63.7,55.5,45.5,84,71,54,30.07,29.93,9,1,9,0.00
2013-7-20,76.3,64.8,56.7,62.7,56.3,50.6,85,75,58,30.01,29.88,7,1,7,0.00
2013-7-21,78.8,65.6,54.2,62.7,55.9,47.8,85,72,52,29.93,29.83,9,2,9,0.00
2013-7-22,80.6,67.3,58.7,61.1,55.9,52.4,84,69,44,29.98,29.88,10,2,10,0.00
2013-7-23,86.0,69.7,52.0,64.2,56.9,46.3,83,65,44,29.97,29.87,9,1,9,0.00
2013-7-24,87.5,72.1,55.6,63.2,57.0,49.9,83,62,34,29.98,29.90,10,2,10,0.00
2013-7-25,87.8,71.8,54.9,61.3,54.9,48.2,81,58,28,30.02,29.94,10,2,10,0.00
2013-7-26,88.0,71.2,54.4,61.3,52.6,45.9,80,55,30,30.10,29.99,11,2,11,0.47
2013-7-27,78.8,65.4,50.9,55.5,49.9,42.3,81,59,38,30.12,29.94,10,2,10,0.00
2013-7-28,73.1,61.9,50.0,56.1,50.7,43.3,82,67,53,29.99,29.90,10,2,10,0.00
2013-7-29,76.0,64.9,55.8,57.8,53.6,48.2,81,68,51,29.96,29.87,9,1,9,0.00
2013-7-30,79.6,62.5,52.4,61.3,53.4,46.9,85,73,48,30.07,29.96,7,1,7,0.00
2013-7-31,61.7,61.4,61.2,53.4,53.1,52.9,74,74,74,30.05,30.04,1,0,1,0.00
2013-8-1,63.7,62.3,60.8,56.5,55.7,54.7,80,79,77,30.06,30.03,2,0,2,0.00
2013-8-2,69.3,63.8,58.7,57.4,55.4,53.6,84,74,63,30.09,30.04,4,1,4,0.00
2013-8-3,79.6,69.6,55.1,62.6,57.7,49.3,86,67,51,30.05,29.92,8,2,8,0.00
2013-8-4,87.5,71.4,54.4,65.9,58.6,49.0,85,66,44,29.96,29.83,9,1,10,0.00
2013-8-5,87.5,73.7,58.9,66.2,59.6,52.7,83,63,39,29.94,29.84,11,2,11,0.23
2013-8-6,89.5,73.3,57.2,61.9,55.1,50.0,81,56,28,29.93,29.83,9,2,9,0.00
2013-8-7,85.1,71.2,55.6,59.9,54.5,48.0,79,58,39,29.97,29.88,10,1,10,0.00
2013-8-8,79.6,70.0,60.1,62.4,57.4,51.8,76,65,54,29.98,29.84,12,2,12,0.63
2013-8-9,81.4,69.4,59.8,63.3,58.7,53.3,82,69,52,29.89,29.79,11,1,11,0.03
2013-8-10,80.5,68.3,59.9,65.3,61.2,55.0,85,79,59,29.97,29.84,8,1,8,0.07
2013-8-11,74.2,65.4,58.7,62.9,58.5,54.6,87,79,65,30.00,29.91,7,1,7,0.00
2013-8-12,77.8,66.5,56.9,63.0,57.6,52.0,86,74,58,30.00,29.93,8,1,8,0.00
2013-8-13,83.2,68.3,53.3,62.0,54.8,47.6,84,64,41,30.03,29.86,8,1,8,0.00
2013-8-14,83.9,69.4,56.3,63.0,56.0,50.0,83,64,42,29.90,29.85,7,1,7,0.00
2013-8-15,80.3,70.5,62.5,66.8,61.5,55.3,84,74,59,29.91,29.87,8,0,8,0.03
2013-8-16,82.1,71.6,63.9,68.9,63.2,57.3,86,76,57,29.97,29.89,7,1,7,0.00
2013-8-17,84.6,71.1,57.6,62.5,58.0,51.9,83,65,47,30.02,29.94,8,1,10,0.67
2013-8-18,82.4,70.1,60.5,62.4,57.8,53.3,81,67,45,30.07,29.97,11,2,11,0.00
2013-8-19,82.1,69.2,55.6,63.6,56.4,49.9,83,65,44,30.04,29.97,12,2,12,0.00
2013-8-20,80.8,68.2,58.3,59.3,54.4,48.9,79,63,43,30.05,29.92,9,2,9,0.00
2013-8-21,88.6,69.4,50.9,61.5,53.9,44.6,82,60,38,29.94,29.77,11,2,11,0.00
2013-8-22,83.2,68.4,56.2,62.3,57.2,49.7,83,68,48,29.83,29.77,6,0,6,0.35
2013-8-23,72.2,65.3,60.5,61.4,57.8,54.9,84,77,63,29.88,29.80,6,1,6,0.03
2013-8-24,76.0,66.1,61.2,60.9,56.7,51.9,83,72,52,29.84,29.77,7,1,7,0.00
2013-8-25,63.7,58.4,54.0,57.5,52.2,48.3,86,80,72,29.86,29.81,3,0,4,0.11
2013-8-26,60.8,60.8,60.8,56.7,56.7,56.7,86,86,86,29.84,29.84,0,0,0,0.00
2013-8-30,79.2,72.7,63.5,65.8,61.3,56.2,86,68,56,30.08,29.98,6,2,6,0.00
2013-8-31,88.6,71.2,55.1,65.5,58.8,50.0,84,67,45,29.99,29.76,6,1,6,0.00
2013-9-1,84.6,74.4,58.5,62.4,57.7,51.7,80,57,42,29.85,29.73,7,1,9,0.37
2013-9-2,81.0,71.9,63.4,62.7,58.0,54.5,79,63,51,29.86,29.80,8,1,8,0.00
2013-9-3,78.1,68.2,60.3,63.7,58.3,53.9,85,72,54,29.92,29.85,9,1,9,0.08
2013-9-4,73.1,65.8,58.3,61.6,57.9,52.6,84,76,66,29.97,29.91,5,1,5,0.00
2013-9-5,66.8,63.2,58.3,62.1,58.4,54.5,87,84,82,29.96,29.88,5,0,5,0.16
2013-9-6,68.8,62.7,58.3,61.9,57.8,54.5,87,84,77,30.04,29.94,7,1,7,0.96
2013-9-7,78.8,65.1,50.9,64.6,57.3,47.2,87,77,60,30.02,29.87,9,1,9,0.00
2013-9-8,83.2,67.7,55.8,65.5,58.6,50.9,86,74,52,29.99,29.90,9,1,9,0.00
2013-9-9,80.6,67.7,56.9,66.2,59.5,52.0,86,76,57,29.94,29.83,8,1,8,0.00
2013-9-10,94.1,73.7,58.5,67.3,58.5,51.6,85,63,26,29.84,29.68,11,2,11,0.00
2013-9-11,98.6,83.1,72.0,68.3,60.0,51.6,62,46,32,29.84,29.72,0,0,0,0.36
2013-9-12,83.3,70.3,59.0,65.6,59.5,52.4,81,69,54,29.89,29.78,0,0,0,0.00
2013-9-13,76.0,65.6,59.4,65.9,59.0,53.7,85,80,69,29.83,29.71,0,0,0,0.00
2013-9-14,80.5,68.6,60.5,66.5,61.0,56.3,86,77,61,29.72,29.57,0,0,0,0.00
2013-9-15,67.7,63.8,60.8,61.4,58.6,56.7,86,83,78,29.74,29.56,0,0,0,0.06
2013-9-16,68.9,62.8,58.7,60.1,57.3,54.6,87,82,73,29.83,29.74,7,0,7,0.00
2013-9-22,59.0,57.1,55.8,55.2,53.1,51.9,87,86,86,29.82,29.67,6,1,6,0.32
2013-9-23,61.0,56.9,54.0,56.9,53.0,50.2,87,87,85,29.95,29.81,6,1,6,0.07
2013-9-24,60.1,54.4,50.6,55.3,50.6,46.8,88,87,83,29.94,29.80,4,0,4,0.13
2013-9-25,58.0,53.0,50.0,53.9,49.1,46.1,88,87,83,29.98,29.80,4,0,4,0.05
2013-9-26,61.6,54.1,49.1,53.6,49.1,44.8,88,83,66,30.11,29.98,5,0,5,0.00
2013-9-27,58.5,52.7,46.4,53.8,48.7,43.0,88,86,83,30.12,29.86,5,1,5,0.10
2013-9-28,64.4,57.9,52.4,58.5,53.7,48.6,87,86,80,29.86,29.49,8,2,8,1.00
2013-9-29,58.0,54.4,52.4,54.1,50.5,48.6,87,87,85,29.65,29.32,9,2,9,1.31
2013-9-30,59.6,53.1,50.4,53.6,49.0,46.6,88,86,79,29.95,29.57,8,2,8,0.51
2013-10-1,54.7,50.5,44.6,50.6,46.7,41.3,88,87,86,30.14,29.93,5,0,5,0.46
2013-10-2,54.2,47.4,42.3,49.9,43.9,39.0,89,88,85,30.13,30.02,8,0,8,0.15
2013-10-3,54.4,48.4,41.8,49.6,44.6,38.0,88,87,81,30.36,30.12,5,0,5,0.00
2013-10-4,66.1,50.1,34.6,56.4,44.7,31.6,90,82,67,30.38,30.27,7,0,7,0.01
2013-10-5,71.3,53.1,37.6,54.7,45.3,34.4,89,77,54,30.28,30.07,6,0,6,0.00
2013-10-6,74.5,55.7,41.4,58.2,46.8,37.4,88,74,44,30.09,29.91,5,0,5,0.00
2013-10-7,61.4,54.2,50.8,54.3,49.0,44.8,86,83,69,30.09,29.93,6,1,6,0.13
2013-10-8,55.1,50.5,42.3,50.8,46.6,38.5,88,86,85,30.10,29.92,5,1,5,0.27
2013-10-9,57.6,47.2,39.6,51.3,42.9,36.6,89,85,78,30.05,29.92,5,1,6,0.00
2013-10-10,56.0,48.1,43.6,51.1,44.4,40.2,88,87,83,29.96,29.90,4,0,4,0.00
2013-10-21,72.4,64.6,60.5,52.8,46.9,45.8,59,53,44,29.95,29.93,7,2,7,0.00
2013-10-22,76.0,57.3,42.8,58.2,48.1,38.4,87,73,53,29.99,29.89,4,0,4,0.00
2013-10-23,72.0,54.8,41.8,58.8,47.9,37.8,88,79,62,29.95,29.87,4,0,4,0.00
2013-10-24,67.3,52.4,43.0,57.9,47.1,39.2,88,82,70,30.04,29.93,4,0,4,0.00
2013-10-25,52.4,49.9,46.3,48.2,46.0,41.8,87,87,84,30.20,30.03,4,0,4,0.00
2013-10-26,53.5,50.4,47.2,49.3,46.5,43.6,87,86,86,30.23,30.09,6,0,6,0.00
2013-10-27,53.5,49.4,47.2,49.3,45.5,43.6,88,87,86,30.12,29.77,5,0,5,0.02
2013-10-28,56.2,48.9,41.9,45.9,39.2,32.9,88,72,42,29.81,29.76,10,2,11,0.00
2013-11-15,47.7,45.7,44.6,43.8,42.0,41.1,87,87,86,29.88,29.48,10,2,10,0.15
2013-11-16,47.9,46.4,44.6,43.8,42.4,41.1,87,86,84,29.79,29.46,10,2,10,0.18
2013-11-17,55.1,49.5,45.2,48.3,44.3,41.4,87,82,77,29.94,29.79,8,2,8,0.03
2013-11-18,56.9,52.4,49.9,49.0,46.6,43.7,86,81,72,29.92,29.66,7,1,7,0.25
2013-11-19,53.3,48.3,36.4,48.4,44.0,32.8,87,85,84,29.97,29.65,7,1,7,0.72
2013-11-20,45.7,35.0,28.6,40.2,29.4,23.3,89,80,59,30.33,29.97,10,1,10,0.00
2013-11-21,45.7,34.6,23.8,24.9,19.2,13.3,84,57,31,30.48,30.33,14,3,14,0.00
2013-11-22,50.2,40.6,29.5,25.5,18.3,12.9,62,41,33,30.47,30.31,16,5,16,0.00
2013-11-23,52.7,43.5,33.1,25.1,21.9,17.6,66,43,32,30.31,30.08,16,6,16,0.00
2013-11-24,52.4,36.8,28.1,34.7,27.3,22.0,84,69,50,30.21,30.08,3,0,3,0.00
2013-11-25,52.6,36.9,27.5,38.4,29.5,22.9,86,75,57,30.27,30.21,5,0,5,0.00
2013-11-30,49.5,46.8,41.4,44.9,42.6,37.4,87,85,83,30.33,30.16,4,0,4,0.06
2013-12-1,54.9,52.9,47.5,49.8,48.0,43.2,85,83,82,30.16,29.85,11,3,11,1.39
2013-12-2,51.7,43.5,37.1,47.0,39.6,33.5,88,86,82,29.99,29.85,12,1,12,0.08
2013-12-3,41.0,36.1,26.8,35.6,28.0,19.2,88,74,47,30.21,29.99,10,1,10,0.00
2013-12-4,36.9,27.7,21.2,23.0,18.6,13.8,86,69,48,30.27,30.20,6,1,8,0.00
2013-12-5,32.8,25.8,17.5,21.3,16.5,10.7,80,68,61,30.22,30.08,7,1,7,0.00
2013-12-6,31.5,27.6,24.8,17.8,13.9,10.8,72,57,46,30.08,29.89,12,2,12,0.00
2013-12-7,28.6,22.3,15.1,11.4,8.3,4.1,68,55,41,30.34,30.01,6,1,8,0.00
2013-12-8,27.9,17.7,9.0,16.4,8.9,2.0,80,69,58,30.51,30.34,4,0,4,0.00
2013-12-9,27.9,21.3,12.2,21.1,14.9,6.3,83,76,71,30.53,30.45,5,0,5,0.00
2013-12-10,35.6,29.6,23.6,30.2,24.5,19.4,85,81,76,30.46,30.32,2,0,2,0.00
2013-12-11,41.6,28.6,21.1,35.3,24.2,17.2,88,84,76,30.32,30.13,5,0,5,0.01
2013-12-12,36.7,30.4,22.3,33.1,26.8,18.7,89,87,84,30.15,30.04,4,0,4,0.10
2013-12-13,46.8,41.5,36.4,42.6,37.7,32.8,88,86,85,30.37,30.15,2,0,2,0.08
2013-12-14,41.8,37.7,34.2,37.8,34.2,31.0,88,87,86,30.41,30.30,4,0,4,0.00
2013-12-15,45.7,40.3,35.6,41.8,36.8,32.4,88,87,86,30.42,30.35,2,0,2,0.00
2013-12-16,45.4,41.2,38.7,41.8,37.6,35.1,88,87,86,30.41,30.18,7,1,7,0.01
2013-12-17,38.9,36.9,34.4,35.5,33.6,31.2,89,88,87,30.19,30.12,5,0,5,0.00
2013-12-18,42.3,38.9,32.9,38.7,35.5,30.1,89,87,87,30.12,29.98,5,0,5,0.10
2013-12-19,38.0,34.5,31.5,35.0,31.5,28.5,89,89,88,30.26,30.05,5,0,5,0.00
2013-12-20,47.7,38.5,33.5,43.6,35.3,30.5,89,88,86,30.17,29.81,9,1,9,0.10
2013-12-21,49.7,47.9,46.4,45.6,43.9,42.8,87,86,85,30.17,29.86,8,1,8,0.28
2013-12-22,52.6,48.6,46.1,48.2,44.5,42.5,87,86,85,30.30,30.16,6,0,6,0.05
2013-12-23,51.7,46.4,36.2,47.5,42.5,32.8,89,86,85,30.47,30.24,6,1,6,0.22
2013-12-24,42.5,36.6,31.9,38.7,33.5,29.3,90,88,87,30.54,30.41,6,1,6,0.00
2013-12-25,39.2,35.8,32.6,36.0,32.8,29.7,89,89,88,30.42,30.32,3,0,3,0.00
2013-12-26,38.0,35.4,33.1,34.8,32.3,30.3,89,89,88,30.33,30.16,3,0,3,0.00
2013-12-27,38.3,35.5,32.6,35.4,32.5,29.7,89,89,88,30.32,30.13,3,0,3,0.03
2013-12-28,44.8,40.3,37.3,41.5,37.1,34.0,89,88,87,30.43,30.32,3,0,3,0.00
2013-12-29,39.2,36.8,34.9,36.3,33.8,32.0,89,89,88,30.39,30.22,4,0,4,0.00
2013-12-30,41.9,38.4,35.8,38.4,35.3,32.9,89,89,87,30.24,30.11,4,0,4,0.01
2013-12-31,47.5,41.6,36.0,43.8,38.4,33.0,89,88,87,30.28,30.16,2,0,4,0.05
2014-1-1,45.7,39.5,34.2,42.1,36.4,31.2,90,88,87,30.30,30.18,3,0,3,0.00
2014-1-2,45.4,40.2,36.4,41.9,37.0,33.1,89,88,87,30.21,29.96,6,0,6,0.17